Time,TemperatureF,DewpointF,PressureIn,WindDirection,WindDirectionDegrees,WindSpeedMPH,WindSpeedGustMPH,Humidity,HourlyPrecipIn,Conditions,Clouds,dailyrainin,SoftwareType,DateUTC
2013-01-16 00:00:00,43.3,42.8,29.96,ENE,75,0.0,0.0,98,0.00,,,0.00,Wunderground v.1.15,2013-01-16 05:00:00,
2013-01-16 00:05:00,43.3,42.8,29.97,ENE,75,0.0,0.0,98,0.00,,,0.00,Wunderground v.1.15,2013-01-16 05:05:00,
2013-01-16 00:09:00,43.4,42.9,29.96,ENE,75,0.0,0.0,98,0.00,,,0.00,Wunderground v.1.15,2013-01-16 05:09:00,
2013-01-16 00:14:00,43.3,42.8,29.96,ENE,75,0.0,0.0,98,0.00,,,0.00,Wunderground v.1.15,2013-01-16 05:14:00,
2013-01-16 00:19:00,43.4,42.9,29.96,ENE,75,0.0,0.0,98,0.00,,,0.00,Wunderground v.1.15,2013-01-16 05:19:00,
2013-01-16 00:24:00,43.3,42.8,29.96,ENE,75,0.0,0.0,98,0.00,,,0.00,Wunderground v.1.15,2013-01-16 05:24:00,
2013-01-16 00:30:00,43.3,42.8,29.96,ENE,75,0.0,0.0,98,0.00,,,0.00,Wunderground v.1.15,2013-01-16 05:30:00,
2013-01-16 00:39:00,43.3,42.8,29.95,ENE,75,0.0,0.0,98,0.00,,,0.00,Wunderground v.1.15,2013-01-16 05:39:00,
2013-01-16 00:44:00,43.3,42.8,29.96,ENE,75,0.0,0.0,98,0.00,,,0.00,Wunderground v.1.15,2013-01-16 05:44:00,
2013-01-16 00:49:00,43.3,42.8,29.95,ENE,75,0.0,0.0,98,0.00,,,0.00,Wunderground v.1.15,2013-01-16 05:49:00,
2013-01-16 00:55:00,43.3,42.8,29.94,ENE,75,0.0,0.0,98,0.00,,,0.00,Wunderground v.1.15,2013-01-16 05:55:00,
2013-01-16 01:00:00,43.3,42.8,29.95,ENE,75,0.0,0.0,98,0.00,,,0.00,Wunderground v.1.15,2013-01-16 06:00:00,
2013-01-16 01:10:00,43.3,42.8,29.95,ENE,75,0.0,0.0,98,0.00,,,0.00,Wunderground v.1.15,2013-01-16 06:10:00,
2013-01-16 01:19:00,43.3,42.8,29.94,ENE,75,0.0,0.0,98,0.00,,,0.00,Wunderground v.1.15,2013-01-16 06:19:00,
2013-01-16 01:24:00,43.3,42.8,29.94,ENE,75,0.0,0.0,98,0.00,,,0.00,Wunderground v.1.15,2013-01-16 06:24:00,
2013-01-16 01:29:00,43.3,42.8,29.94,ENE,75,0.0,0.0,98,0.00,,,0.00,Wunderground v.1.15,2013-01-16 06:29:00,
2013-01-16 01:34:00,43.3,42.8,29.94,ENE,75,0.0,0.0,98,0.00,,,0.00,Wunderground v.1.15,2013-01-16 06:34:00,
2013-01-16 01:40:00,43.2,42.7,29.94,ENE,75,0.0,0.0,98,0.00,,,0.00,Wunderground v.1.15,2013-01-16 06:40:00,
2013-01-16 01:45:00,43.2,42.7,29.94,ENE,75,0.0,1.0,98,0.00,,,0.00,Wunderground v.1.15,2013-01-16 06:45:00,
2013-01-16 01:55:00,43.2,42.7,29.95,ENE,75,0.0,0.0,98,0.00,,,0.00,Wunderground v.1.15,2013-01-16 06:55:00,
2013-01-16 02:00:00,43.2,42.7,29.94,ENE,75,0.0,0.0,98,0.00,,,0.00,Wunderground v.1.15,2013-01-16 07:00:00,
2013-01-16 02:09:00,43.2,42.7,29.94,ENE,75,0.0,0.0,98,0.00,,,0.00,Wunderground v.1.15,2013-01-16 07:09:00,
2013-01-16 02:14:00,43.2,42.7,29.94,ENE,75,0.0,0.0,98,0.00,,,0.00,Wunderground v.1.15,2013-01-16 07:14:00,
2013-01-16 02:19:00,43.1,42.6,29.94,ENE,75,0.0,0.0,98,0.00,,,0.00,Wunderground v.1.15,2013-01-16 07:19:00,
2013-01-16 02:24:00,43.1,42.6,29.93,ENE,75,0.0,0.0,98,0.00,,,0.00,Wunderground v.1.15,2013-01-16 07:24:00,
2013-01-16 02:30:00,43.1,42.6,29.94,ENE,75,0.0,0.0,98,0.00,,,0.00,Wunderground v.1.15,2013-01-16 07:30:00,
2013-01-16 02:35:00,43.1,42.6,29.93,ENE,75,0.0,0.0,98,0.00,,,0.00,Wunderground v.1.15,2013-01-16 07:35:00,
2013-01-16 02:40:00,43.1,42.6,29.93,ENE,75,0.0,1.0,98,0.00,,,0.00,Wunderground v.1.15,2013-01-16 07:40:00,
2013-01-16 02:45:00,43.1,42.6,29.93,ENE,75,0.0,1.0,98,0.00,,,0.00,Wunderground v.1.15,2013-01-16 07:45:00,
2013-01-16 02:54:00,43.1,42.6,29.93,ENE,75,0.0,0.0,98,0.00,,,0.00,Wunderground v.1.15,2013-01-16 07:54:00,
2013-01-16 03:00:00,43.1,42.6,29.93,ENE,75,0.0,0.0,98,0.00,,,0.01,Wunderground v.1.15,2013-01-16 08:00:00,
2013-01-16 03:09:00,43.1,42.6,29.93,ENE,75,0.0,0.0,98,0.00,,,0.01,Wunderground v.1.15,2013-01-16 08:09:00,
2013-01-16 03:15:00,43.1,42.6,29.93,ENE,75,0.0,0.0,98,0.00,,,0.01,Wunderground v.1.15,2013-01-16 08:15:00,
2013-01-16 03:20:00,43.1,42.6,29.94,ENE,75,0.0,0.0,98,0.00,,,0.01,Wunderground v.1.15,2013-01-16 08:20:00,
2013-01-16 03:29:00,43.1,42.6,29.94,SW,223,1.0,1.0,98,0.21,,,0.03,Wunderground v.1.15,2013-01-16 08:29:00,
2013-01-16 03:34:00,43.1,42.6,29.94,South,171,0.0,1.0,98,0.13,,,0.04,Wunderground v.1.15,2013-01-16 08:34:00,
2013-01-16 03:39:00,43.1,42.6,29.93,South,171,0.0,0.0,98,0.13,,,0.05,Wunderground v.1.15,2013-01-16 08:39:00,
2013-01-16 03:44:00,43.1,42.6,29.93,South,171,0.0,1.0,98,0.06,,,0.05,Wunderground v.1.15,2013-01-16 08:44:00,
2013-01-16 03:50:00,43.3,42.8,29.92,ENE,68,1.0,1.0,98,0.04,,,0.05,Wunderground v.1.15,2013-01-16 08:50:00,
2013-01-16 03:55:00,43.3,42.8,29.92,NNW,342,1.0,1.0,98,0.00,,,0.05,Wunderground v.1.15,2013-01-16 08:55:00,
2013-01-16 04:00:00,43.3,42.8,29.92,East,101,1.0,1.0,98,0.00,,,0.05,Wunderground v.1.15,2013-01-16 09:00:00,
2013-01-16 04:10:00,43.3,42.8,29.93,West,262,0.0,0.0,98,0.00,,,0.05,Wunderground v.1.15,2013-01-16 09:10:00,
2013-01-16 04:19:00,43.3,42.8,29.93,West,262,0.0,0.0,98,0.00,,,0.05,Wunderground v.1.15,2013-01-16 09:19:00,
2013-01-16 04:24:00,43.4,42.9,29.94,West,262,0.0,0.0,98,0.00,,,0.05,Wunderground v.1.15,2013-01-16 09:24:00,
2013-01-16 04:29:00,43.4,42.9,29.94,West,262,0.0,0.0,98,0.00,,,0.05,Wunderground v.1.15,2013-01-16 09:29:00,
2013-01-16 04:34:00,43.4,42.9,29.94,West,262,0.0,0.0,98,0.00,,,0.05,Wunderground v.1.15,2013-01-16 09:34:00,
2013-01-16 04:39:00,43.5,43.0,29.93,West,262,0.0,0.0,98,0.00,,,0.05,Wunderground v.1.15,2013-01-16 09:39:00,
2013-01-16 04:45:00,43.5,43.0,29.92,West,262,0.0,0.0,98,0.00,,,0.05,Wunderground v.1.15,2013-01-16 09:45:00,
2013-01-16 04:50:00,43.6,43.1,29.92,West,262,0.0,0.0,98,0.00,,,0.05,Wunderground v.1.15,2013-01-16 09:50:00,
2013-01-16 04:55:00,43.6,43.1,29.92,West,262,0.0,0.0,98,0.00,,,0.05,Wunderground v.1.15,2013-01-16 09:55:00,
2013-01-16 05:00:00,43.6,43.1,29.91,West,262,0.0,0.0,98,0.00,,,0.05,Wunderground v.1.15,2013-01-16 10:00:00,
2013-01-16 05:09:00,43.7,43.2,29.92,NW,304,0.0,0.0,98,0.00,,,0.05,Wunderground v.1.15,2013-01-16 10:09:00,
2013-01-16 05:14:00,43.7,43.2,29.92,NW,304,0.0,0.0,98,0.00,,,0.05,Wunderground v.1.15,2013-01-16 10:14:00,
2013-01-16 05:19:00,43.7,43.2,29.93,NW,304,0.0,0.0,98,0.00,,,0.05,Wunderground v.1.15,2013-01-16 10:19:00,
2013-01-16 05:25:00,43.7,43.2,29.93,NW,304,0.0,0.0,98,0.00,,,0.05,Wunderground v.1.15,2013-01-16 10:25:00,
2013-01-16 05:30:00,43.7,43.2,29.94,NW,304,0.0,0.0,98,0.00,,,0.05,Wunderground v.1.15,2013-01-16 10:30:00,
2013-01-16 05:35:00,43.8,43.3,29.95,WNW,298,0.0,1.0,98,0.00,,,0.05,Wunderground v.1.15,2013-01-16 10:35:00,
2013-01-16 05:40:00,43.8,43.3,29.94,NW,304,1.0,1.0,98,0.00,,,0.05,Wunderground v.1.15,2013-01-16 10:40:00,
2013-01-16 05:45:00,43.8,43.3,29.94,NW,304,0.0,1.0,98,0.00,,,0.05,Wunderground v.1.15,2013-01-16 10:45:00,
2013-01-16 05:50:00,43.8,43.3,29.95,NW,304,0.0,0.0,98,0.00,,,0.05,Wunderground v.1.15,2013-01-16 10:50:00,
2013-01-16 06:00:00,43.8,43.3,29.96,NW,304,0.0,0.0,98,0.00,,,0.05,Wunderground v.1.15,2013-01-16 11:00:00,
2013-01-16 06:10:00,43.9,43.4,29.97,NW,304,0.0,0.0,98,0.00,,,0.05,Wunderground v.1.15,2013-01-16 11:10:00,
2013-01-16 06:15:00,44.0,43.5,29.98,NW,304,0.0,0.0,98,0.00,,,0.05,Wunderground v.1.15,2013-01-16 11:15:00,
2013-01-16 06:20:00,44.0,43.5,29.97,NW,304,0.0,0.0,98,0.00,,,0.05,Wunderground v.1.15,2013-01-16 11:20:00,
2013-01-16 06:30:00,44.0,43.5,29.97,NW,304,0.0,0.0,98,0.00,,,0.05,Wunderground v.1.15,2013-01-16 11:30:00,
2013-01-16 06:39:00,44.0,43.5,29.97,NW,304,0.0,0.0,98,0.00,,,0.05,Wunderground v.1.15,2013-01-16 11:39:00,
2013-01-16 06:44:00,44.1,43.6,29.97,NW,304,0.0,0.0,98,0.00,,,0.05,Wunderground v.1.15,2013-01-16 11:44:00,
2013-01-16 06:49:00,44.1,43.6,29.97,NW,304,0.0,0.0,98,0.00,,,0.05,Wunderground v.1.15,2013-01-16 11:49:00,
2013-01-16 06:55:00,44.1,43.6,29.98,NW,304,0.0,0.0,98,0.00,,,0.05,Wunderground v.1.15,2013-01-16 11:55:00,
2013-01-16 07:00:00,44.1,43.6,29.98,NW,304,0.0,0.0,98,0.00,,,0.05,Wunderground v.1.15,2013-01-16 12:00:00,
2013-01-16 07:10:00,44.2,43.7,29.98,NW,310,0.0,0.0,98,0.00,,,0.05,Wunderground v.1.15,2013-01-16 12:10:00,
2013-01-16 07:19:00,44.2,43.7,29.97,NW,310,0.0,0.0,98,0.00,,,0.05,Wunderground v.1.15,2013-01-16 12:19:00,
2013-01-16 07:24:00,44.2,43.7,29.97,NW,310,0.0,0.0,98,0.00,,,0.05,Wunderground v.1.15,2013-01-16 12:24:00,
2013-01-16 07:29:00,44.2,43.7,29.97,NW,310,0.0,0.0,98,0.00,,,0.05,Wunderground v.1.15,2013-01-16 12:29:00,
2013-01-16 07:34:00,44.2,43.7,29.97,NW,310,0.0,1.0,98,0.00,,,0.05,Wunderground v.1.15,2013-01-16 12:34:00,
2013-01-16 07:40:00,44.2,43.7,29.96,NW,310,0.0,0.0,98,0.00,,,0.05,Wunderground v.1.15,2013-01-16 12:40:00,
2013-01-16 07:45:00,44.3,43.8,29.95,NW,310,0.0,0.0,98,0.00,,,0.05,Wunderground v.1.15,2013-01-16 12:45:00,
2013-01-16 07:50:00,44.3,43.8,29.95,NW,310,0.0,0.0,98,0.00,,,0.05,Wunderground v.1.15,2013-01-16 12:50:00,
2013-01-16 07:55:00,44.3,43.8,29.94,NW,310,0.0,1.0,98,0.00,,,0.05,Wunderground v.1.15,2013-01-16 12:55:00,
2013-01-16 08:04:00,44.3,43.8,29.95,NW,310,0.0,0.0,98,0.00,,,0.05,Wunderground v.1.15,2013-01-16 13:04:00,
2013-01-16 08:14:00,44.3,43.8,29.96,NW,310,0.0,0.0,98,0.00,,,0.05,Wunderground v.1.15,2013-01-16 13:14:00,
2013-01-16 08:19:00,44.3,43.8,29.97,NW,310,0.0,0.0,98,0.00,,,0.05,Wunderground v.1.15,2013-01-16 13:19:00,
2013-01-16 08:25:00,44.4,43.9,29.97,NW,310,0.0,0.0,98,0.00,,,0.05,Wunderground v.1.15,2013-01-16 13:25:00,
2013-01-16 08:30:00,44.4,43.9,29.97,NW,310,0.0,0.0,98,0.00,,,0.05,Wunderground v.1.15,2013-01-16 13:30:00,
2013-01-16 08:35:00,44.5,44.0,29.98,NW,310,0.0,0.0,98,0.00,,,0.05,Wunderground v.1.15,2013-01-16 13:35:00,
2013-01-16 08:45:00,44.6,44.1,29.98,NW,310,0.0,0.0,98,0.00,,,0.05,Wunderground v.1.15,2013-01-16 13:45:00,
2013-01-16 08:50:00,44.6,44.1,29.99,NW,310,0.0,0.0,98,0.00,,,0.05,Wunderground v.1.15,2013-01-16 13:50:00,
2013-01-16 09:00:00,44.7,44.2,29.99,NW,310,0.0,0.0,98,0.00,,,0.05,Wunderground v.1.15,2013-01-16 14:00:00,
2013-01-16 09:09:00,44.7,44.4,30.00,WNW,284,0.0,1.0,99,0.00,,,0.05,Wunderground v.1.15,2013-01-16 14:09:00,
2013-01-16 09:14:00,44.8,44.5,30.01,WNW,284,0.0,1.0,99,0.00,,,0.05,Wunderground v.1.15,2013-01-16 14:14:00,
2013-01-16 09:20:00,44.8,44.5,30.01,West,278,1.0,1.0,99,0.00,,,0.05,Wunderground v.1.15,2013-01-16 14:20:00,
2013-01-16 09:25:00,44.9,44.6,30.01,West,279,1.0,1.0,99,0.00,,,0.05,Wunderground v.1.15,2013-01-16 14:25:00,
2013-01-16 09:30:00,44.9,44.6,30.01,West,279,0.0,0.0,99,0.00,,,0.05,Wunderground v.1.15,2013-01-16 14:30:00,
2013-01-16 09:39:00,45.0,44.7,30.02,West,265,1.0,1.0,99,0.00,,,0.05,Wunderground v.1.15,2013-01-16 14:39:00,
2013-01-16 09:44:00,45.2,44.7,30.00,NNW,334,1.0,2.0,98,0.00,,,0.05,Wunderground v.1.15,2013-01-16 14:44:00,
2013-01-16 09:49:00,45.3,44.8,30.01,NNW,333,0.0,0.0,98,0.00,,,0.05,Wunderground v.1.15,2013-01-16 14:49:00,
2013-01-16 09:54:00,45.4,45.1,30.01,NNW,333,0.0,0.0,99,0.00,,,0.05,Wunderground v.1.15,2013-01-16 14:54:00,
2013-01-16 10:00:00,45.6,45.3,30.01,NNE,27,0.0,1.0,99,0.00,,,0.05,Wunderground v.1.15,2013-01-16 15:00:00,
2013-01-16 10:10:00,46.0,45.5,30.01,NNE,28,0.0,0.0,98,0.00,,,0.05,Wunderground v.1.15,2013-01-16 15:10:00,
2013-01-16 10:15:00,46.0,45.7,30.02,NNE,28,0.0,0.0,99,0.00,,,0.05,Wunderground v.1.15,2013-01-16 15:15:00,
2013-01-16 10:20:00,46.0,45.7,30.03,NNE,28,0.0,0.0,99,0.00,,,0.05,Wunderground v.1.15,2013-01-16 15:20:00,
2013-01-16 10:25:00,46.0,45.7,30.03,West,265,0.0,0.0,99,0.00,,,0.05,Wunderground v.1.15,2013-01-16 15:25:00,
2013-01-16 10:30:00,46.1,45.8,30.03,West,265,0.0,0.0,99,0.00,,,0.05,Wunderground v.1.15,2013-01-16 15:30:00,
2013-01-16 10:39:00,46.1,45.8,30.03,West,274,1.0,2.0,99,0.00,,,0.05,Wunderground v.1.15,2013-01-16 15:39:00,
2013-01-16 10:44:00,46.0,45.7,30.04,NW,314,1.0,4.0,99,0.00,,,0.05,Wunderground v.1.15,2013-01-16 15:44:00,
2013-01-16 10:49:00,45.9,45.6,30.04,SSW,207,2.0,4.0,99,0.00,,,0.05,Wunderground v.1.15,2013-01-16 15:49:00,
2013-01-16 10:55:00,45.6,45.3,30.03,WNW,293,2.0,4.0,99,0.00,,,0.05,Wunderground v.1.15,2013-01-16 15:55:00,
2013-01-16 11:00:00,45.4,44.9,30.03,SW,229,2.0,2.0,98,0.00,,,0.05,Wunderground v.1.15,2013-01-16 16:00:00,
2013-01-16 11:09:00,45.4,44.9,30.02,SW,229,0.0,0.0,98,0.00,,,0.05,Wunderground v.1.15,2013-01-16 16:09:00,
2013-01-16 11:14:00,45.5,45.0,30.01,SW,229,0.0,0.0,98,0.00,,,0.05,Wunderground v.1.15,2013-01-16 16:14:00,
2013-01-16 11:19:00,45.5,45.0,30.01,SW,227,0.0,1.0,98,0.00,,,0.05,Wunderground v.1.15,2013-01-16 16:19:00,
2013-01-16 11:24:00,45.5,45.0,30.02,SW,227,0.0,1.0,98,0.00,,,0.05,Wunderground v.1.15,2013-01-16 16:24:00,
2013-01-16 11:29:00,45.5,45.0,30.02,WNW,285,1.0,3.0,98,0.00,,,0.05,Wunderground v.1.15,2013-01-16 16:29:00,
2013-01-16 11:34:00,45.4,44.9,30.02,WNW,298,1.0,3.0,98,0.00,,,0.05,Wunderground v.1.15,2013-01-16 16:34:00,
2013-01-16 11:40:00,45.4,44.9,30.03,West,260,1.0,1.0,98,0.00,,,0.06,Wunderground v.1.15,2013-01-16 16:40:00,
2013-01-16 11:45:00,45.4,44.9,30.03,West,260,0.0,1.0,98,0.00,,,0.06,Wunderground v.1.15,2013-01-16 16:45:00,
2013-01-16 11:50:00,45.4,44.9,30.03,West,260,0.0,0.0,98,0.00,,,0.06,Wunderground v.1.15,2013-01-16 16:50:00,
2013-01-16 11:55:00,45.5,45.0,30.03,West,260,0.0,0.0,98,0.00,,,0.06,Wunderground v.1.15,2013-01-16 16:55:00,
2013-01-16 12:04:00,45.5,45.0,30.02,WSW,258,0.0,0.0,98,0.00,,,0.06,Wunderground v.1.15,2013-01-16 17:04:00,
2013-01-16 12:09:00,45.5,45.0,30.02,WSW,258,0.0,0.0,98,0.00,,,0.06,Wunderground v.1.15,2013-01-16 17:09:00,
2013-01-16 12:14:00,45.6,45.1,30.02,WSW,258,0.0,0.0,98,0.00,,,0.06,Wunderground v.1.15,2013-01-16 17:14:00,
2013-01-16 12:19:00,45.6,45.1,30.02,WSW,258,0.0,0.0,98,0.00,,,0.06,Wunderground v.1.15,2013-01-16 17:19:00,
2013-01-16 12:25:00,45.6,45.1,30.01,WSW,258,0.0,0.0,98,0.00,,,0.07,Wunderground v.1.15,2013-01-16 17:25:00,
2013-01-16 12:30:00,45.5,44.7,30.01,WSW,256,0.0,0.0,97,0.00,,,0.07,Wunderground v.1.15,2013-01-16 17:30:00,
2013-01-16 12:35:00,45.5,44.7,29.99,SSE,148,0.0,0.0,97,0.00,,,0.07,Wunderground v.1.15,2013-01-16 17:35:00,
2013-01-16 12:45:00,45.6,44.8,30.00,SSE,148,0.0,0.0,97,0.00,,,0.07,Wunderground v.1.15,2013-01-16 17:45:00,
2013-01-16 12:54:00,45.7,44.9,30.00,SSE,148,0.0,0.0,97,0.00,,,0.07,Wunderground v.1.15,2013-01-16 17:54:00,
2013-01-16 13:00:00,45.8,45.0,30.00,SSE,148,0.0,0.0,97,0.00,,,0.08,Wunderground v.1.15,2013-01-16 18:00:00,
2013-01-16 13:10:00,45.9,45.1,30.00,SSE,149,0.0,0.0,97,0.00,,,0.08,Wunderground v.1.15,2013-01-16 18:10:00,
2013-01-16 13:20:00,46.0,45.2,29.98,SSE,149,0.0,0.0,97,0.00,,,0.08,Wunderground v.1.15,2013-01-16 18:20:00,
2013-01-16 13:25:00,46.0,45.2,29.97,SSE,149,0.0,0.0,97,0.00,,,0.08,Wunderground v.1.15,2013-01-16 18:25:00,
2013-01-16 13:30:00,46.1,45.3,29.98,SSE,149,0.0,1.0,97,0.00,,,0.08,Wunderground v.1.15,2013-01-16 18:30:00,
2013-01-16 13:39:00,46.3,45.2,29.98,SSE,149,0.0,0.0,96,0.00,,,0.08,Wunderground v.1.15,2013-01-16 18:39:00,
2013-01-16 13:44:00,46.3,45.5,29.97,SSE,149,0.0,0.0,97,0.00,,,0.08,Wunderground v.1.15,2013-01-16 18:44:00,
2013-01-16 13:49:00,46.3,45.2,29.98,SSE,149,0.0,0.0,96,0.00,,,0.08,Wunderground v.1.15,2013-01-16 18:49:00,
2013-01-16 13:54:00,46.5,45.7,29.98,SSE,149,0.0,0.0,97,0.00,,,0.08,Wunderground v.1.15,2013-01-16 18:54:00,
2013-01-16 14:00:00,46.7,45.9,29.98,SSE,149,0.0,0.0,97,0.00,,,0.09,Wunderground v.1.15,2013-01-16 19:00:00,
2013-01-16 14:10:00,47.0,46.2,29.97,SSE,149,0.0,0.0,97,0.00,,,0.09,Wunderground v.1.15,2013-01-16 19:10:00,
2013-01-16 14:19:00,47.1,46.3,29.97,South,183,0.0,0.0,97,0.00,,,0.09,Wunderground v.1.15,2013-01-16 19:19:00,
2013-01-16 14:29:00,47.3,46.5,29.96,NE,54,0.0,1.0,97,0.00,,,0.09,Wunderground v.1.15,2013-01-16 19:29:00,
2013-01-16 14:34:00,47.2,46.4,29.98,West,260,0.0,1.0,97,0.00,,,0.09,Wunderground v.1.15,2013-01-16 19:34:00,
2013-01-16 14:39:00,47.3,46.2,29.98,WNW,285,1.0,1.0,96,0.00,,,0.09,Wunderground v.1.15,2013-01-16 19:39:00,
2013-01-16 14:44:00,47.3,46.2,29.98,West,273,1.0,2.0,96,0.00,,,0.09,Wunderground v.1.15,2013-01-16 19:44:00,
2013-01-16 14:50:00,47.2,46.1,29.97,West,266,1.0,1.0,96,0.00,,,0.09,Wunderground v.1.15,2013-01-16 19:50:00,
2013-01-16 14:55:00,47.2,46.1,29.99,West,266,1.0,1.0,96,0.00,,,0.09,Wunderground v.1.15,2013-01-16 19:55:00,
2013-01-16 15:00:00,47.2,46.1,29.98,West,264,1.0,1.0,96,0.00,,,0.09,Wunderground v.1.15,2013-01-16 20:00:00,
2013-01-16 15:09:00,47.1,46.0,29.98,NNE,24,0.0,1.0,96,0.00,,,0.09,Wunderground v.1.15,2013-01-16 20:09:00,
2013-01-16 15:14:00,47.1,46.0,29.98,NNE,24,0.0,1.0,96,0.00,,,0.09,Wunderground v.1.15,2013-01-16 20:14:00,
2013-01-16 15:19:00,47.1,46.0,29.99,WNW,292,0.0,0.0,96,0.00,,,0.09,Wunderground v.1.15,2013-01-16 20:19:00,
2013-01-16 15:24:00,47.0,45.9,29.99,West,280,0.0,6.0,96,0.00,,,0.09,Wunderground v.1.15,2013-01-16 20:24:00,
2013-01-16 15:29:00,46.8,45.7,29.99,WSW,257,2.0,2.0,96,0.00,,,0.09,Wunderground v.1.15,2013-01-16 20:29:00,
2013-01-16 15:34:00,46.4,44.8,30.00,South,175,3.0,3.0,94,0.00,,,0.09,Wunderground v.1.15,2013-01-16 20:34:00,
2013-01-16 15:40:00,46.0,44.1,30.00,WNW,289,2.0,2.0,93,0.00,,,0.09,Wunderground v.1.15,2013-01-16 20:40:00,
2013-01-16 15:45:00,45.7,43.8,30.00,NW,310,1.0,2.0,93,0.00,,,0.09,Wunderground v.1.15,2013-01-16 20:45:00,
2013-01-16 15:50:00,45.5,43.6,29.99,WSW,258,2.0,2.0,93,0.00,,,0.09,Wunderground v.1.15,2013-01-16 20:50:00,
2013-01-16 16:00:00,45.1,43.2,30.00,NW,314,0.0,1.0,93,0.00,,,0.09,Wunderground v.1.15,2013-01-16 21:00:00,
2013-01-16 16:09:00,44.5,42.6,30.00,WNW,288,1.0,1.0,93,0.00,,,0.09,Wunderground v.1.15,2013-01-16 21:09:00,
2013-01-16 16:14:00,44.2,42.3,30.01,NNW,329,2.0,2.0,93,0.00,,,0.09,Wunderground v.1.15,2013-01-16 21:14:00,
2013-01-16 16:20:00,43.9,41.7,30.01,NW,325,2.0,2.0,92,0.00,,,0.09,Wunderground v.1.15,2013-01-16 21:20:00,
2013-01-16 16:25:00,43.6,41.7,30.02,WNW,300,2.0,2.0,93,0.00,,,0.09,Wunderground v.1.15,2013-01-16 21:25:00,
2013-01-16 16:34:00,43.0,40.8,30.02,NNE,31,1.0,1.0,92,0.00,,,0.10,Wunderground v.1.15,2013-01-16 21:34:00,
2013-01-16 16:39:00,42.8,40.9,30.01,NE,56,1.0,1.0,93,0.00,,,0.10,Wunderground v.1.15,2013-01-16 21:39:00,
2013-01-16 16:49:00,42.3,40.4,30.03,North,6,0.0,0.0,93,0.00,,,0.10,Wunderground v.1.15,2013-01-16 21:49:00,
2013-01-16 16:54:00,42.2,40.3,30.04,NNW,342,1.0,2.0,93,0.00,,,0.10,Wunderground v.1.15,2013-01-16 21:54:00,
2013-01-16 17:00:00,42.1,40.5,30.04,West,260,1.0,1.0,94,0.00,,,0.10,Wunderground v.1.15,2013-01-16 22:00:00,
2013-01-16 17:09:00,41.9,40.3,30.03,West,279,0.0,1.0,94,0.00,,,0.10,Wunderground v.1.15,2013-01-16 22:09:00,
2013-01-16 17:14:00,41.7,40.1,30.03,West,279,0.0,1.0,94,0.00,,,0.10,Wunderground v.1.15,2013-01-16 22:14:00,
2013-01-16 17:19:00,41.6,40.0,30.02,WNW,301,0.0,0.0,94,0.00,,,0.10,Wunderground v.1.15,2013-01-16 22:19:00,
2013-01-16 17:24:00,41.5,39.9,30.02,WNW,301,0.0,0.0,94,0.00,,,0.10,Wunderground v.1.15,2013-01-16 22:24:00,
2013-01-16 17:29:00,41.4,39.8,30.02,East,92,0.0,0.0,94,0.00,,,0.10,Wunderground v.1.15,2013-01-16 22:29:00,
2013-01-16 17:35:00,41.4,39.8,30.02,East,92,0.0,0.0,94,0.00,,,0.10,Wunderground v.1.15,2013-01-16 22:35:00,
2013-01-16 17:40:00,41.3,40.0,30.02,East,92,0.0,0.0,95,0.00,,,0.10,Wunderground v.1.15,2013-01-16 22:40:00,
2013-01-16 17:45:00,41.2,39.9,30.03,East,92,0.0,0.0,95,0.00,,,0.10,Wunderground v.1.15,2013-01-16 22:45:00,
2013-01-16 17:54:00,41.1,39.8,30.05,East,92,0.0,0.0,95,0.00,,,0.10,Wunderground v.1.15,2013-01-16 22:54:00,
2013-01-16 18:00:00,41.2,39.9,30.06,East,92,0.0,0.0,95,0.00,,,0.10,Wunderground v.1.15,2013-01-16 23:00:00,
2013-01-16 18:09:00,41.1,40.0,30.04,East,92,0.0,0.0,96,0.00,,,0.11,Wunderground v.1.15,2013-01-16 23:09:00,
2013-01-16 18:14:00,41.1,40.0,30.05,East,92,0.0,0.0,96,0.00,,,0.11,Wunderground v.1.15,2013-01-16 23:14:00,
2013-01-16 18:20:00,41.1,40.0,30.04,East,92,0.0,0.0,96,0.00,,,0.11,Wunderground v.1.15,2013-01-16 23:20:00,
2013-01-16 18:30:00,41.1,40.0,30.04,East,92,0.0,0.0,96,0.00,,,0.11,Wunderground v.1.15,2013-01-16 23:30:00,
2013-01-16 18:35:00,41.1,40.0,30.03,East,92,0.0,0.0,96,0.00,,,0.11,Wunderground v.1.15,2013-01-16 23:35:00,
2013-01-16 18:44:00,41.1,40.0,30.04,East,92,0.0,0.0,96,0.00,,,0.11,Wunderground v.1.15,2013-01-16 23:44:00,
2013-01-16 18:49:00,41.0,39.9,30.04,East,92,0.0,0.0,96,0.00,,,0.11,Wunderground v.1.15,2013-01-16 23:49:00,
2013-01-16 18:54:00,41.0,39.9,30.04,East,92,0.0,0.0,96,0.00,,,0.11,Wunderground v.1.15,2013-01-16 23:54:00,
2013-01-16 19:00:00,41.0,39.9,30.03,East,92,0.0,0.0,96,0.00,,,0.11,Wunderground v.1.15,2013-01-17 00:00:00,
2013-01-16 19:10:00,41.1,40.3,30.03,East,92,0.0,1.0,97,0.00,,,0.11,Wunderground v.1.15,2013-01-17 00:10:00,
2013-01-16 19:15:00,41.1,40.3,30.04,ENE,73,0.0,1.0,97,0.00,,,0.11,Wunderground v.1.15,2013-01-17 00:15:00,
2013-01-16 19:24:00,41.0,39.9,30.05,ENE,73,0.0,0.0,96,0.00,,,0.11,Wunderground v.1.15,2013-01-17 00:24:00,
2013-01-16 19:29:00,41.0,39.9,30.04,NE,56,0.0,1.0,96,0.00,,,0.11,Wunderground v.1.15,2013-01-17 00:29:00,
2013-01-16 19:39:00,41.0,40.2,30.04,NE,56,0.0,0.0,97,0.00,,,0.11,Wunderground v.1.15,2013-01-17 00:39:00,
2013-01-16 19:44:00,41.0,40.2,30.04,NE,56,0.0,0.0,97,0.00,,,0.11,Wunderground v.1.15,2013-01-17 00:44:00,
2013-01-16 19:50:00,41.0,40.2,30.05,NE,56,0.0,0.0,97,0.00,,,0.11,Wunderground v.1.15,2013-01-17 00:50:00,
2013-01-16 19:55:00,41.0,40.2,30.05,NE,56,0.0,0.0,97,0.00,,,0.11,Wunderground v.1.15,2013-01-17 00:55:00,
2013-01-16 20:00:00,41.1,40.3,30.05,NE,56,0.0,0.0,97,0.00,,,0.11,Wunderground v.1.15,2013-01-17 01:00:00,
2013-01-16 20:09:00,41.1,40.3,30.05,NE,56,0.0,0.0,97,0.00,,,0.11,Wunderground v.1.15,2013-01-17 01:09:00,
2013-01-16 20:14:00,41.1,40.3,30.05,NE,56,0.0,0.0,97,0.00,,,0.11,Wunderground v.1.15,2013-01-17 01:14:00,
2013-01-16 20:19:00,41.2,40.4,30.05,NE,56,0.0,0.0,97,0.00,,,0.11,Wunderground v.1.15,2013-01-17 01:19:00,
2013-01-16 20:24:00,41.2,40.4,30.04,NE,56,0.0,0.0,97,0.00,,,0.11,Wunderground v.1.15,2013-01-17 01:24:00,
2013-01-16 20:30:00,41.3,40.5,30.04,NE,56,0.0,0.0,97,0.00,,,0.11,Wunderground v.1.15,2013-01-17 01:30:00,
2013-01-16 20:35:00,41.3,40.5,30.03,NE,56,0.0,0.0,97,0.00,,,0.11,Wunderground v.1.15,2013-01-17 01:35:00,
2013-01-16 20:40:00,41.3,40.5,30.03,NE,56,0.0,0.0,97,0.00,,,0.11,Wunderground v.1.15,2013-01-17 01:40:00,
2013-01-16 20:45:00,41.3,40.5,30.03,NE,56,0.0,0.0,97,0.00,,,0.11,Wunderground v.1.15,2013-01-17 01:45:00,
2013-01-16 20:54:00,41.4,40.6,30.04,NE,56,0.0,0.0,97,0.00,,,0.11,Wunderground v.1.15,2013-01-17 01:54:00,
2013-01-16 21:00:00,41.4,40.6,30.04,NE,56,0.0,0.0,97,0.00,,,0.11,Wunderground v.1.15,2013-01-17 02:00:00,
2013-01-16 21:10:00,41.5,40.7,30.02,NE,56,0.0,0.0,97,0.00,,,0.11,Wunderground v.1.15,2013-01-17 02:10:00,
2013-01-16 21:15:00,41.5,40.7,30.03,NE,56,0.0,0.0,97,0.00,,,0.11,Wunderground v.1.15,2013-01-17 02:15:00,
2013-01-16 21:25:00,41.5,40.7,30.03,NE,56,0.0,0.0,97,0.00,,,0.11,Wunderground v.1.15,2013-01-17 02:25:00,
2013-01-16 21:30:00,41.5,40.7,30.03,NNW,342,0.0,0.0,97,0.00,,,0.11,Wunderground v.1.15,2013-01-17 02:30:00,
2013-01-16 21:39:00,41.6,40.8,30.03,NNW,342,0.0,0.0,97,0.00,,,0.11,Wunderground v.1.15,2013-01-17 02:39:00,
2013-01-16 21:44:00,41.6,40.8,30.03,North,352,0.0,0.0,97,0.00,,,0.11,Wunderground v.1.15,2013-01-17 02:44:00,
2013-01-16 21:49:00,41.7,40.9,30.03,North,352,0.0,0.0,97,0.00,,,0.11,Wunderground v.1.15,2013-01-17 02:49:00,
2013-01-16 22:00:00,41.7,40.9,30.03,ENE,62,0.0,0.0,97,0.00,,,0.11,Wunderground v.1.15,2013-01-17 03:00:00,
2013-01-16 22:10:00,41.7,40.9,30.02,ENE,61,1.0,1.0,97,0.00,,,0.11,Wunderground v.1.15,2013-01-17 03:10:00,
2013-01-16 22:15:00,41.8,41.0,30.02,ENE,61,0.0,1.0,97,0.00,,,0.11,Wunderground v.1.15,2013-01-17 03:15:00,
2013-01-16 22:20:00,41.8,41.0,30.02,ENE,61,0.0,0.0,97,0.00,,,0.11,Wunderground v.1.15,2013-01-17 03:20:00,
2013-01-16 22:29:00,41.8,41.0,30.03,ENE,61,0.0,0.0,97,0.00,,,0.11,Wunderground v.1.15,2013-01-17 03:29:00,
2013-01-16 22:34:00,41.8,41.0,30.02,NNE,33,0.0,0.0,97,0.00,,,0.11,Wunderground v.1.15,2013-01-17 03:34:00,
2013-01-16 22:39:00,41.8,41.0,30.03,NNE,33,1.0,1.0,97,0.00,,,0.11,Wunderground v.1.15,2013-01-17 03:39:00,
2013-01-16 22:44:00,41.9,41.1,30.01,NE,37,0.0,1.0,97,0.00,,,0.11,Wunderground v.1.15,2013-01-17 03:44:00,
2013-01-16 22:49:00,41.9,41.1,30.01,ENE,57,1.0,1.0,97,0.00,,,0.11,Wunderground v.1.15,2013-01-17 03:49:00,
2013-01-16 22:55:00,41.9,41.1,30.03,NW,304,1.0,1.0,97,0.00,,,0.11,Wunderground v.1.15,2013-01-17 03:55:00,
2013-01-16 23:00:00,42.0,41.2,30.02,NE,56,1.0,1.0,97,0.00,,,0.11,Wunderground v.1.15,2013-01-17 04:00:00,
2013-01-16 23:10:00,42.0,41.2,30.01,ENE,65,2.0,2.0,97,0.00,,,0.11,Wunderground v.1.15,2013-01-17 04:10:00,
2013-01-16 23:19:00,42.0,41.2,30.01,North,11,1.0,1.0,97,0.00,,,0.11,Wunderground v.1.15,2013-01-17 04:19:00,
2013-01-16 23:24:00,42.0,41.2,30.01,NNE,17,1.0,1.0,97,0.00,,,0.11,Wunderground v.1.15,2013-01-17 04:24:00,
2013-01-16 23:29:00,42.0,41.2,30.03,NNE,33,1.0,1.0,97,0.00,,,0.11,Wunderground v.1.15,2013-01-17 04:29:00,
2013-01-16 23:34:00,42.0,41.2,30.03,NE,42,0.0,2.0,97,0.00,,,0.11,Wunderground v.1.15,2013-01-17 04:34:00,
2013-01-16 23:40:00,42.0,41.2,30.02,NE,41,1.0,1.0,97,0.00,,,0.11,Wunderground v.1.15,2013-01-17 04:40:00,
2013-01-16 23:45:00,42.1,41.3,30.03,NNE,21,1.0,1.0,97,0.00,,,0.11,Wunderground v.1.15,2013-01-17 04:45:00,
2013-01-16 23:54:00,42.2,41.4,30.05,NNE,21,0.0,1.0,97,0.00,,,0.11,Wunderground v.1.15,2013-01-17 04:54:00,